Time;durP1;ratioP1;P1;durP2;ratioP2;P2;SDS_P1;SDS_P2;PMS_P1;PMS_P2;Temp;Humidity;BMP_temperature;BMP_pressure;BME280_temperature;BME280_humidity;BME280_pressure;Samples;Min_cycle;Max_cycle;Signal;HPM_P1;HPM_P2
2023/07/18 00:00:41;;;;;;;4.75;1.08;;;16.50;99.90;;;;;;5039615;28;20475;-84
2023/07/18 00:03:08;;;;;;;2.58;1.35;;;16.60;99.90;;;;;;5040794;28;20717;-84
2023/07/18 00:05:36;;;;;;;6.32;1.60;;;16.40;99.90;;;;;;5038979;28;20406;-84
2023/07/18 00:08:03;;;;;;;8.20;1.42;;;16.40;99.90;;;;;;5034327;28;20033;-84
2023/07/18 00:10:29;;;;;;;4.75;1.42;;;16.30;99.90;;;;;;5035412;28;20040;-84
2023/07/18 00:12:56;;;;;;;5.63;1.58;;;16.20;99.90;;;;;;5051696;28;20076;-85
2023/07/18 00:15:22;;;;;;;3.03;1.45;;;16.20;99.90;;;;;;5055454;28;20033;-85
2023/07/18 00:17:49;;;;;;;2.40;1.05;;;16.30;99.90;;;;;;5035974;28;20038;-85
2023/07/18 00:20:18;;;;;;;3.72;1.80;;;16.20;99.90;;;;;;5037895;28;20040;-84
2023/07/18 00:22:49;;;;;;;7.25;1.73;;;16.10;99.90;;;;;;5035417;28;20025;-87
2023/07/18 00:25:19;;;;;;;3.45;1.50;;;16.00;99.90;;;;;;5045759;28;20033;-83
2023/07/18 00:27:50;;;;;;;5.72;1.38;;;16.00;99.90;;;;;;5036645;28;20493;-84
2023/07/18 00:30:17;;;;;;;4.03;1.30;;;15.80;99.90;;;;;;5037095;28;20037;-84
2023/07/18 00:32:46;;;;;;;4.13;1.58;;;15.70;99.90;;;;;;5035914;28;20036;-84
2023/07/18 00:35:16;;;;;;;2.15;1.33;;;15.80;99.90;;;;;;5046893;28;20044;-84
2023/07/18 00:37:43;;;;;;;6.00;1.88;;;15.80;99.90;;;;;;5037177;28;20036;-84
2023/07/18 00:40:11;;;;;;;3.80;1.67;;;15.60;99.90;;;;;;5033426;28;20052;-84
2023/07/18 00:42:38;;;;;;;4.30;1.58;;;15.50;99.90;;;;;;5038960;28;20041;-84
2023/07/18 00:45:06;;;;;;;1.73;1.05;;;15.50;99.90;;;;;;5038784;28;20467;-85
2023/07/18 00:47:37;;;;;;;4.18;1.63;;;15.40;99.90;;;;;;5038151;28;20032;-84
2023/07/18 00:50:10;;;;;;;2.97;1.63;;;15.50;99.90;;;;;;5046727;28;20034;-84
2023/07/18 00:52:40;;;;;;;3.45;1.83;;;15.60;99.90;;;;;;5033195;28;20463;-84
2023/07/18 00:55:11;;;;;;;1.75;1.17;;;15.50;99.90;;;;;;5038117;28;20048;-84
2023/07/18 00:57:42;;;;;;;4.50;1.70;;;15.50;99.90;;;;;;5037232;28;20043;-84
2023/07/18 01:00:14;;;;;;;5.15;1.90;;;15.50;99.90;;;;;;5034546;28;20068;-84
2023/07/18 01:02:43;;;;;;;3.30;1.77;;;15.40;99.90;;;;;;5036550;28;20049;-84
2023/07/18 01:05:10;;;;;;;6.13;2.17;;;15.40;99.90;;;;;;5035566;28;20573;-84
2023/07/18 01:07:40;;;;;;;3.05;1.25;;;15.50;99.90;;;;;;5032524;28;20037;-84
2023/07/18 01:10:16;;;;;;;3.15;1.33;;;15.60;99.90;;;;;;5040346;28;20363;-83
2023/07/18 01:12:43;;;;;;;3.20;1.00;;;15.50;99.90;;;;;;5038954;28;20025;-84
2023/07/18 01:15:12;;;;;;;3.67;1.63;;;15.50;99.90;;;;;;5054746;28;20047;-84
2023/07/18 01:17:45;;;;;;;4.40;2.25;;;15.20;99.90;;;;;;5028323;28;20390;-84
2023/07/18 01:20:16;;;;;;;4.97;1.38;;;15.10;99.90;;;;;;5035872;28;20032;-84
2023/07/18 01:22:44;;;;;;;3.05;1.42;;;14.90;1.00;;;;;;5036792;28;20045;-84
2023/07/18 01:25:16;;;;;;;2.50;1.38;;;14.70;1.00;;;;;;5036027;28;20901;-84
2023/07/18 01:27:43;;;;;;;;;;;14.60;1.00;;;;;;5035115;28;20052;-83
2023/07/18 01:30:10;;;;;;;3.80;2.05;;;14.50;1.00;;;;;;5039297;28;19913;-83
2023/07/18 01:32:37;;;;;;;3.60;1.95;;;14.50;1.00;;;;;;5033118;28;20033;-84
2023/07/18 01:35:08;;;;;;;3.55;1.08;;;14.50;1.00;;;;;;5036082;28;20500;-84
2023/07/18 01:37:36;;;;;;;3.88;1.95;;;14.80;1.00;;;;;;5031733;28;20065;-84
2023/07/18 01:40:08;;;;;;;2.90;1.98;;;14.90;1.00;;;;;;5032731;28;20045;-84
2023/07/18 01:42:36;;;;;;;4.00;2.08;;;14.90;1.00;;;;;;5053616;28;20383;-84
2023/07/18 01:45:03;;;;;;;4.68;1.80;;;14.70;1.00;;;;;;5035296;28;20021;-85
2023/07/18 01:47:31;;;;;;;2.42;1.17;;;14.50;1.00;;;;;;5033130;28;20041;-85
2023/07/18 01:50:03;;;;;;;2.92;1.30;;;14.50;1.00;;;;;;5037578;28;20037;-85
2023/07/18 01:52:29;;;;;;;3.55;1.80;;;14.40;1.00;;;;;;5035760;28;20025;-85
2023/07/18 01:54:58;;;;;;;2.65;1.63;;;14.40;1.00;;;;;;5037568;28;20477;-86
2023/07/18 01:57:52;;;;;;;2.90;1.80;;;14.30;1.00;;;;;;5030590;28;20021;-85
2023/07/18 02:00:19;;;;;;;9.18;2.22;;;14.10;1.00;;;;;;5032013;28;20056;-85
2023/07/18 02:02:47;;;;;;;4.57;3.25;;;14.10;1.00;;;;;;5058999;28;20044;-84
2023/07/18 02:05:16;;;;;;;6.05;2.03;;;14.00;1.00;;;;;;5052192;28;20410;-85
2023/07/18 02:07:42;;;;;;;4.18;2.55;;;13.90;1.00;;;;;;5045069;28;20025;-84
2023/07/18 02:10:08;;;;;;;5.28;1.83;;;13.80;1.00;;;;;;5036493;28;20052;-85
2023/07/18 02:12:34;;;;;;;4.43;1.80;;;13.70;1.00;;;;;;5035124;28;20041;-83
2023/07/18 02:15:02;;;;;;;4.45;1.63;;;13.80;1.00;;;;;;5040969;28;20043;-84
2023/07/18 02:17:28;;;;;;;3.33;1.45;;;13.80;1.00;;;;;;5047965;28;20052;-84
2023/07/18 02:19:54;;;;;;;3.42;1.60;;;13.80;1.00;;;;;;5034736;28;20140;-84
2023/07/18 02:22:21;;;;;;;5.22;1.67;;;13.80;1.00;;;;;;5028785;28;20026;-84
2023/07/18 02:24:48;;;;;;;3.85;2.25;;;13.80;1.00;;;;;;5036832;28;20235;-84
2023/07/18 02:27:14;;;;;;;3.50;2.08;;;13.70;1.00;;;;;;5030823;28;20494;-84
2023/07/18 02:29:41;;;;;;;3.95;1.77;;;13.70;1.00;;;;;;5053382;28;20076;-84
2023/07/18 02:32:07;;;;;;;7.78;1.75;;;13.70;1.00;;;;;;5037350;28;20026;-85
2023/07/18 02:34:33;;;;;;;2.05;1.48;;;13.80;1.00;;;;;;5051294;28;20041;-85
2023/07/18 02:36:59;;;;;;;2.88;1.40;;;13.80;1.00;;;;;;5035337;28;20040;-84
2023/07/18 02:39:30;;;;;;;3.70;1.65;;;13.70;1.00;;;;;;5040610;28;20485;-84
2023/07/18 02:41:56;;;;;;;5.00;2.30;;;13.70;1.00;;;;;;5031336;28;20038;-84
2023/07/18 02:44:22;;;;;;;3.28;1.80;;;13.60;1.00;;;;;;5035967;28;20037;-84
2023/07/18 02:46:48;;;;;;;5.03;2.03;;;13.60;1.00;;;;;;5034370;28;20040;-84
2023/07/18 02:49:14;;;;;;;4.32;1.77;;;13.70;1.00;;;;;;5034730;28;20034;-84
2023/07/18 02:51:40;;;;;;;6.07;1.88;;;13.80;1.00;;;;;;5032462;28;20173;-84
2023/07/18 02:54:06;;;;;;;4.50;1.83;;;13.90;1.00;;;;;;5052355;28;20067;-85
2023/07/18 02:56:34;;;;;;;4.32;1.88;;;14.00;1.00;;;;;;5033409;28;20053;-84
2023/07/18 02:59:01;;;;;;;2.40;1.50;;;14.10;1.00;;;;;;5030566;28;20038;-84
2023/07/18 03:01:28;;;;;;;3.58;2.22;;;14.00;1.00;;;;;;5036806;28;20041;-84
2023/07/18 03:03:55;;;;;;;4.03;2.08;;;13.90;1.00;;;;;;5035680;28;20033;-85
2023/07/18 03:06:23;;;;;;;2.60;1.67;;;13.80;1.00;;;;;;5050147;28;20052;-84
2023/07/18 03:08:50;;;;;;;3.50;1.85;;;13.70;1.00;;;;;;5032815;28;20038;-84
2023/07/18 03:11:18;;;;;;;4.50;1.88;;;13.70;1.00;;;;;;5048464;28;20478;-84
2023/07/18 03:13:44;;;;;;;3.97;2.70;;;13.60;1.00;;;;;;5048901;28;20041;-84
2023/07/18 03:16:10;;;;;;;4.10;1.63;;;13.50;1.00;;;;;;5034357;28;20478;-84
2023/07/18 03:18:37;;;;;;;4.55;2.17;;;13.40;1.00;;;;;;5036197;28;20048;-84
2023/07/18 03:21:03;;;;;;;5.07;2.15;;;13.60;1.00;;;;;;5040517;28;20037;-84
2023/07/18 03:23:29;;;;;;;6.63;2.25;;;13.50;1.00;;;;;;5037583;28;20021;-84
2023/07/18 03:25:55;;;;;;;3.53;1.95;;;13.40;9.30;;;;;;5036165;28;20443;-86
2023/07/18 03:28:23;;;;;;;3.47;2.15;;;13.40;13.90;;;;;;5035887;28;20054;-84
2023/07/18 03:30:49;;;;;;;7.88;1.83;;;13.50;12.70;;;;;;5038483;28;20029;-83
2023/07/18 03:33:16;;;;;;;3.30;1.67;;;13.50;7.50;;;;;;5041055;28;20025;-84
2023/07/18 03:35:42;;;;;;;4.72;1.75;;;13.50;14.30;;;;;;5035490;28;20048;-83
2023/07/18 03:38:08;;;;;;;3.00;1.65;;;13.80;6.70;;;;;;5041919;28;20040;-83
2023/07/18 03:40:35;;;;;;;8.27;2.70;;;13.90;1.00;;;;;;5046178;28;20034;-84
2023/07/18 03:43:01;;;;;;;4.68;2.50;;;13.90;1.00;;;;;;5039253;28;20473;-85
2023/07/18 03:45:28;;;;;;;4.30;2.13;;;13.90;1.60;;;;;;5032577;28;20034;-85
2023/07/18 03:47:55;;;;;;;3.70;2.50;;;13.90;1.00;;;;;;5034140;28;20029;-85
2023/07/18 03:50:21;;;;;;;4.88;1.80;;;13.90;1.00;;;;;;5034735;28;20469;-84
2023/07/18 03:52:47;;;;;;;5.45;2.47;;;13.90;1.00;;;;;;5036830;28;20030;-84
2023/07/18 03:55:13;;;;;;;6.50;2.70;;;13.90;1.00;;;;;;5039930;28;20033;-84
2023/07/18 03:57:40;;;;;;;5.13;2.08;;;13.90;1.00;;;;;;5039208;28;20044;-84
2023/07/18 04:00:13;;;;;;;4.40;1.95;;;13.90;1.00;;;;;;5054670;28;20061;-84
2023/07/18 04:02:42;;;;;;;5.15;1.85;;;14.00;1.00;;;;;;5033930;28;20378;-86
2023/07/18 04:05:08;;;;;;;4.72;2.30;;;14.00;1.00;;;;;;5049670;28;20025;-86
2023/07/18 04:07:34;;;;;;;3.42;1.90;;;13.90;1.00;;;;;;5052834;28;20032;-86
2023/07/18 04:10:01;;;;;;;4.22;2.35;;;13.90;1.00;;;;;;5047011;28;20056;-83
2023/07/18 04:12:27;;;;;;;4.97;2.42;;;13.80;9.90;;;;;;5034822;28;20395;-82
2023/07/18 04:14:53;;;;;;;5.22;2.15;;;13.70;23.50;;;;;;5037554;28;20037;-82
2023/07/18 04:17:19;;;;;;;5.90;2.22;;;13.70;35.60;;;;;;5051473;28;20091;-83
2023/07/18 04:19:45;;;;;;;7.53;2.22;;;13.70;45.70;;;;;;5043593;28;20033;-82
2023/07/18 04:22:12;;;;;;;10.32;3.22;;;13.70;39.70;;;;;;5033980;28;20042;-81
2023/07/18 04:24:38;;;;;;;6.40;2.75;;;13.70;43.40;;;;;;5035087;28;20040;-80
2023/07/18 04:27:04;;;;;;;5.00;2.28;;;13.70;43.40;;;;;;5035795;28;20045;-81
2023/07/18 04:29:30;;;;;;;4.63;2.47;;;13.90;47.00;;;;;;5031792;28;20364;-81
2023/07/18 04:31:57;;;;;;;5.18;2.08;;;14.10;24.20;;;;;;5034228;28;20044;-81
2023/07/18 04:34:24;;;;;;;4.78;1.40;;;14.20;3.60;;;;;;5051738;28;20037;-81
2023/07/18 04:36:50;;;;;;;3.95;1.90;;;14.30;1.00;;;;;;5030586;28;20030;-80
2023/07/18 04:39:16;;;;;;;3.33;2.22;;;14.50;1.00;;;;;;5032799;28;20064;-81
2023/07/18 04:41:42;;;;;;;3.83;1.63;;;14.80;1.00;;;;;;5034411;28;20056;-80
2023/07/18 04:44:08;;;;;;;11.38;2.92;;;15.20;1.00;;;;;;5035275;28;20040;-81
2023/07/18 04:46:34;;;;;;;6.00;1.70;;;15.60;1.00;;;;;;5037255;28;20029;-80
2023/07/18 04:49:00;;;;;;;3.00;2.10;;;15.80;1.00;;;;;;5036478;28;20038;-81
2023/07/18 04:51:27;;;;;;;4.13;1.95;;;16.40;1.00;;;;;;5035147;28;20482;-82
2023/07/18 04:53:53;;;;;;;2.63;1.50;;;16.90;99.90;;;;;;5033886;28;20477;-80
2023/07/18 04:56:19;;;;;;;4.22;1.88;;;16.90;99.90;;;;;;5034253;28;20454;-81
2023/07/18 04:58:45;;;;;;;4.43;1.83;;;16.70;99.90;;;;;;5034594;28;20163;-79
2023/07/18 05:01:11;;;;;;;4.22;2.20;;;16.50;99.90;;;;;;5034752;28;20029;-81
2023/07/18 05:03:38;;;;;;;5.65;2.33;;;16.50;99.90;;;;;;5033228;28;20391;-81
2023/07/18 05:06:04;;;;;;;7.53;2.63;;;16.70;99.90;;;;;;5035330;28;20359;-81
2023/07/18 05:08:30;;;;;;;6.45;2.88;;;17.00;99.90;;;;;;5035882;28;20064;-82
2023/07/18 05:11:02;;;;;;;4.72;2.03;;;17.20;99.90;;;;;;5034792;28;20041;-82
2023/07/18 05:13:28;;;;;;;4.68;1.58;;;17.20;99.90;;;;;;5048082;28;20049;-82
2023/07/18 05:15:59;;;;;;;5.13;2.45;;;17.30;99.90;;;;;;5024867;28;20118;-81
2023/07/18 05:18:26;;;;;;;3.25;1.65;;;17.30;99.90;;;;;;5032093;28;20038;-81
2023/07/18 05:20:56;;;;;;;2.78;1.45;;;17.40;99.90;;;;;;5034340;28;20052;-81
2023/07/18 05:23:22;;;;;;;4.93;1.95;;;17.90;99.90;;;;;;5050822;28;20048;-82
2023/07/18 05:25:49;;;;;;;3.28;1.50;;;18.10;99.90;;;;;;5036993;28;20434;-82
2023/07/18 05:28:15;;;;;;;4.65;1.95;;;18.40;99.90;;;;;;5034840;28;20037;-81
2023/07/18 05:30:41;;;;;;;3.80;2.03;;;18.40;99.90;;;;;;5037349;28;20040;-82
2023/07/18 05:33:08;;;;;;;4.95;2.38;;;18.60;99.90;;;;;;5033509;28;20041;-81
2023/07/18 05:35:34;;;;;;;3.92;2.33;;;19.00;99.90;;;;;;5029027;28;20041;-81
2023/07/18 05:38:03;;;;;;;3.65;1.90;;;19.40;99.90;;;;;;5034631;28;20044;-81
2023/07/18 05:40:29;;;;;;;3.20;1.38;;;19.70;99.90;;;;;;5035650;28;20037;-81
2023/07/18 05:42:55;;;;;;;5.05;1.42;;;19.80;99.90;;;;;;5034091;28;20036;-81
2023/07/18 05:45:21;;;;;;;3.17;1.42;;;20.10;97.50;;;;;;5034966;28;20807;-81
2023/07/18 05:47:48;;;;;;;5.25;2.40;;;19.60;99.90;;;;;;5034379;28;20037;-82
2023/07/18 05:50:14;;;;;;;4.40;2.33;;;19.30;99.90;;;;;;5037054;28;20056;-80
2023/07/18 05:52:40;;;;;;;3.40;1.65;;;19.10;99.90;;;;;;5032136;28;20037;-82
2023/07/18 05:55:07;;;;;;;2.88;1.40;;;19.20;99.90;;;;;;5035041;28;20659;-81
2023/07/18 05:57:33;;;;;;;2.60;1.58;;;19.50;99.90;;;;;;5037176;28;20036;-80
2023/07/18 06:00:01;;;;;;;2.58;1.48;;;19.60;99.20;;;;;;5046186;28;20049;-82
2023/07/18 06:02:28;;;;;;;4.38;1.58;;;19.80;98.60;;;;;;5032219;28;20132;-79
2023/07/18 06:04:55;;;;;;;2.53;1.48;;;20.10;43.90;;;;;;5028251;28;20050;-79
2023/07/18 06:07:21;;;;;;;3.33;1.52;;;20.40;49.80;;;;;;5031854;28;20759;-77
2023/07/18 06:09:52;;;;;;;2.85;1.67;;;20.40;26.40;;;;;;5027705;28;20049;-79
2023/07/18 06:12:18;;;;;;;4.85;2.03;;;20.20;29.60;;;;;;5027858;28;20037;-80
2023/07/18 06:14:44;;;;;;;4.18;1.80;;;20.60;33.30;;;;;;5032658;28;20048;-80
2023/07/18 06:17:10;;;;;;;4.78;1.77;;;20.40;22.40;;;;;;5030213;28;20359;-86
2023/07/18 06:19:36;;;;;;;4.38;1.55;;;20.30;18.70;;;;;;5038785;28;20045;-86
2023/07/18 06:22:03;;;;;;;3.10;1.85;;;20.50;17.70;;;;;;5034478;28;20455;-86
2023/07/18 06:24:29;;;;;;;2.72;1.40;;;21.50;1.00;;;;;;5036857;28;20036;-86
2023/07/18 06:26:56;;;;;;;2.97;1.50;;;22.20;1.00;;;;;;5036696;28;20040;-85
2023/07/18 06:29:24;;;;;;;5.80;1.30;;;22.60;1.00;;;;;;5033535;28;20053;-86
2023/07/18 06:31:50;;;;;;;3.55;1.73;;;21.90;1.00;;;;;;5034192;28;20038;-86
2023/07/18 06:34:19;;;;;;;6.03;1.65;;;21.40;1.00;;;;;;5034215;28;20033;-85
2023/07/18 06:36:46;;;;;;;2.70;1.48;;;21.40;1.00;;;;;;5035317;28;20040;-86
2023/07/18 06:39:13;;;;;;;4.05;1.33;;;21.60;1.00;;;;;;5033916;28;20036;-87
2023/07/18 06:41:40;;;;;;;3.92;1.40;;;21.40;1.00;;;;;;5034066;28;20030;-85
2023/07/18 06:44:10;;;;;;;3.17;1.17;;;21.20;1.00;;;;;;5046096;28;20056;-86
2023/07/18 06:46:36;;;;;;;4.82;1.60;;;21.30;1.00;;;;;;5031055;28;20037;-86
2023/07/18 06:49:02;;;;;;;4.00;1.48;;;21.70;1.00;;;;;;5036401;28;20034;-86
2023/07/18 06:51:28;;;;;;;2.60;1.17;;;21.50;1.00;;;;;;5034486;28;20390;-86
2023/07/18 06:53:54;;;;;;;3.10;1.27;;;21.30;1.00;;;;;;5037129;28;20387;-84
2023/07/18 06:56:20;;;;;;;3.13;1.02;;;21.90;1.00;;;;;;5037098;28;20048;-84
2023/07/18 06:58:47;;;;;;;3.42;1.45;;;22.70;99.90;;;;;;5037840;28;20033;-84
2023/07/18 07:01:13;;;;;;;4.07;1.30;;;23.50;99.90;;;;;;5033563;28;20056;-85
2023/07/18 07:03:39;;;;;;;2.40;1.40;;;23.90;99.90;;;;;;5039609;28;20033;-84
2023/07/18 07:06:10;;;;;;;3.10;1.15;;;23.30;99.90;;;;;;5032698;28;20060;-86
2023/07/18 07:08:36;;;;;;;1.83;1.15;;;22.90;99.90;;;;;;5036620;28;20033;-86
2023/07/18 07:11:04;;;;;;;2.63;1.00;;;22.80;99.90;;;;;;5036540;28;20053;-88
2023/07/18 07:13:30;;;;;;;5.75;1.40;;;23.20;99.90;;;;;;5036440;28;20049;-85
2023/07/18 07:15:57;;;;;;;2.10;1.30;;;23.60;99.90;;;;;;5040096;28;20146;-86
2023/07/18 07:18:23;;;;;;;3.50;1.10;;;23.00;99.90;;;;;;5037062;28;20060;-86
2023/07/18 07:20:51;;;;;;;3.17;0.98;;;22.90;99.90;;;;;;5038381;28;20037;-84
2023/07/18 07:23:17;;;;;;;2.92;1.02;;;22.80;99.90;;;;;;5039583;28;20044;-85
2023/07/18 07:25:43;;;;;;;3.47;1.75;;;23.10;99.90;;;;;;5038994;28;20040;-84
2023/07/18 07:28:09;;;;;;;2.17;0.90;;;23.80;99.90;;;;;;5034521;28;20045;-85
2023/07/18 07:30:35;;;;;;;1.67;0.88;;;24.60;99.90;;;;;;5036855;28;20425;-84
2023/07/18 07:33:05;;;;;;;2.15;1.10;;;24.70;99.90;;;;;;5038263;28;20036;-83
2023/07/18 07:35:32;;;;;;;2.53;1.00;;;25.20;99.90;;;;;;5035670;28;20041;-84
2023/07/18 07:37:58;;;;;;;1.98;0.90;;;25.10;99.90;;;;;;5042061;28;20046;-87
2023/07/18 07:40:24;;;;;;;3.80;1.50;;;24.60;99.90;;;;;;5035148;28;20041;-87
2023/07/18 07:42:51;;;;;;;5.38;1.35;;;24.40;99.90;;;;;;5041362;28;20040;-84
2023/07/18 07:45:17;;;;;;;3.17;1.75;;;24.60;99.90;;;;;;5043093;28;20026;-87
2023/07/18 07:47:43;;;;;;;3.25;1.00;;;24.50;99.90;;;;;;5045844;28;20029;-85
2023/07/18 07:50:12;;;;;;;3.13;1.25;;;24.90;99.90;;;;;;5036140;28;20054;-84
2023/07/18 07:52:38;;;;;;;3.47;1.30;;;25.50;99.90;;;;;;5038561;28;20053;-85
2023/07/18 07:55:05;;;;;;;2.25;1.33;;;25.90;99.90;;;;;;5035574;28;20283;-93
2023/07/18 07:57:32;;;;;;;4.07;1.33;;;25.90;99.90;;;;;;5055754;28;20042;-84
2023/07/18 07:59:58;;;;;;;1.92;0.60;;;25.30;99.90;;;;;;5037548;28;20577;-86
2023/07/18 08:02:24;;;;;;;3.17;1.00;;;25.40;99.90;;;;;;5028439;28;20042;-85
2023/07/18 08:04:50;;;;;;;4.38;1.50;;;26.00;99.90;;;;;;5043726;28;20047;-87
2023/07/18 08:07:16;;;;;;;2.20;1.13;;;26.60;99.90;;;;;;5050079;28;20041;-85
2023/07/18 08:09:43;;;;;;;2.97;1.10;;;26.30;99.90;;;;;;5030309;28;20386;-86
2023/07/18 08:12:11;;;;;;;2.83;0.85;;;26.10;99.90;;;;;;5035181;28;20029;-84
2023/07/18 08:14:37;;;;;;;2.13;0.90;;;26.30;99.90;;;;;;5037483;28;20436;-84
2023/07/18 08:17:08;;;;;;;4.70;0.98;;;26.20;99.90;;;;;;5038929;28;20033;-85
2023/07/18 08:19:34;;;;;;;4.00;1.23;;;26.40;99.90;;;;;;5036123;28;20037;-85
2023/07/18 08:22:02;;;;;;;3.40;1.17;;;25.40;99.90;;;;;;5036406;28;20056;-85
2023/07/18 08:24:29;;;;;;;3.33;1.02;;;25.00;99.90;;;;;;5033959;28;20025;-86
2023/07/18 08:26:56;;;;;;;2.25;1.00;;;25.70;99.90;;;;;;5035663;28;20033;-83
2023/07/18 08:29:31;;;;;;;2.22;0.80;;;26.50;99.90;;;;;;5039944;28;20037;-86
2023/07/18 08:31:58;;;;;;;1.73;0.90;;;27.00;99.90;;;;;;5034512;28;20478;-87
2023/07/18 08:34:25;;;;;;;3.35;1.30;;;27.60;99.90;;;;;;5031257;28;20030;-86
2023/07/18 08:36:51;;;;;;;2.42;1.00;;;27.70;99.90;;;;;;5034143;28;20040;-84
2023/07/18 08:39:17;;;;;;;4.68;1.40;;;27.10;99.90;;;;;;5034784;28;20064;-86
2023/07/18 08:41:45;;;;;;;2.50;1.10;;;27.10;99.90;;;;;;5036854;28;20040;-84
2023/07/18 08:44:13;;;;;;;4.03;1.85;;;26.90;99.90;;;;;;5019858;28;20033;-83
2023/07/18 08:46:42;;;;;;;2.15;0.80;;;26.60;99.90;;;;;;5035955;28;20033;-86
2023/07/18 08:49:13;;;;;;;1.50;0.70;;;26.60;99.90;;;;;;5029412;28;20033;-87
2023/07/18 08:51:44;;;;;;;1.95;1.00;;;26.70;99.90;;;;;;5030387;28;20034;-86
2023/07/18 08:54:11;;;;;;;2.50;1.30;;;26.60;99.90;;;;;;5022709;28;20149;-86
2023/07/18 08:56:40;;;;;;;2.17;1.00;;;25.60;99.90;;;;;;5035996;28;20037;-88
2023/07/18 08:59:06;;;;;;;2.90;0.82;;;24.90;99.90;;;;;;5037194;28;20482;-86
2023/07/18 09:01:32;;;;;;;3.40;0.85;;;25.60;99.90;;;;;;5037795;28;20100;-88
2023/07/18 09:03:59;;;;;;;6.20;1.48;;;26.70;99.90;;;;;;5035344;28;20033;-89
2023/07/18 09:06:25;;;;;;;2.17;0.90;;;27.60;99.90;;;;;;5034700;28;20051;-86
2023/07/18 09:08:54;;;;;;;3.80;1.00;;;27.90;99.90;;;;;;5035540;28;20044;-87
2023/07/18 09:11:21;;;;;;;2.65;0.80;;;28.00;99.90;;;;;;5036043;28;20041;-86
2023/07/18 09:13:47;;;;;;;3.08;0.90;;;28.20;99.90;;;;;;5041123;28;20033;-87
2023/07/18 09:16:17;;;;;;;3.25;1.17;;;27.80;99.90;;;;;;5032305;28;20032;-85
2023/07/18 09:18:47;;;;;;;4.30;1.50;;;28.10;99.90;;;;;;5036315;28;20044;-86
2023/07/18 09:21:14;;;;;;;3.65;0.93;;;27.90;99.90;;;;;;5036111;28;20040;-86
2023/07/18 09:23:41;;;;;;;3.10;0.80;;;27.60;99.90;;;;;;5038850;28;20497;-86
2023/07/18 09:26:21;;;;;;;6.00;1.35;;;27.50;99.90;;;;;;5032170;28;20030;-85
2023/07/18 09:28:48;;;;;;;1.95;1.13;;;26.70;99.90;;;;;;5035074;28;20029;-85
2023/07/18 09:31:22;;;;;;;2.15;0.82;;;26.20;99.90;;;;;;5036307;28;20053;-84
2023/07/18 09:33:49;;;;;;;1.65;0.52;;;26.00;99.90;;;;;;5037025;28;20033;-86
2023/07/18 09:36:27;;;;;;;3.38;1.23;;;26.50;99.90;;;;;;5031163;28;20040;-84
2023/07/18 09:38:54;;;;;;;2.97;1.05;;;27.00;99.90;;;;;;5044951;28;20394;-85
2023/07/18 09:41:22;;;;;;;2.10;0.98;;;26.90;99.90;;;;;;5035319;28;20052;-85
2023/07/18 09:43:52;;;;;;;2.05;0.88;;;27.70;99.90;;;;;;5033440;28;20029;-84
2023/07/18 09:46:18;;;;;;;4.70;1.20;;;28.40;99.90;;;;;;5035414;28;20037;-85
2023/07/18 09:48:45;;;;;;;1.33;0.60;;;28.20;99.90;;;;;;5036099;28;20034;-86
2023/07/18 09:51:20;;;;;;;3.63;0.90;;;28.50;99.90;;;;;;5037592;28;20052;-87
2023/07/18 09:53:47;;;;;;;2.88;1.15;;;28.90;99.90;;;;;;5033519;28;20343;-86
2023/07/18 09:56:15;;;;;;;3.10;0.95;;;29.20;99.90;;;;;;5046095;28;20038;-87
2023/07/18 09:58:43;;;;;;;2.35;0.90;;;29.40;99.90;;;;;;5029907;28;20040;-86
2023/07/18 10:01:12;;;;;;;2.40;1.20;;;29.20;99.90;;;;;;5034584;28;20053;-87
2023/07/18 10:03:39;;;;;;;2.33;1.00;;;28.80;99.90;;;;;;5035882;28;20511;-84
2023/07/18 10:06:09;;;;;;;1.98;1.15;;;28.60;99.90;;;;;;5033722;28;20037;-87
2023/07/18 10:08:38;;;;;;;2.70;1.20;;;28.60;99.90;;;;;;5030986;28;20029;-85
2023/07/18 10:11:07;;;;;;;2.55;0.90;;;28.40;99.90;;;;;;5038471;28;20040;-83
2023/07/18 10:13:54;;;;;;;1.25;0.82;;;27.80;99.90;;;;;;5036543;28;20043;-85
2023/07/18 10:16:20;;;;;;;3.90;1.17;;;26.90;99.90;;;;;;5027971;28;20110;-88
2023/07/18 10:18:48;;;;;;;2.97;1.15;;;26.80;99.90;;;;;;5039153;28;20418;-87
2023/07/18 10:21:29;;;;;;;3.80;1.45;;;26.80;99.90;;;;;;5041284;28;20048;-87
2023/07/18 10:23:56;;;;;;;1.98;0.80;;;27.40;99.90;;;;;;5045555;28;20029;-86
2023/07/18 10:26:33;;;;;;;2.88;0.90;;;27.60;99.90;;;;;;5057123;28;20030;-88
2023/07/18 10:29:03;;;;;;;2.38;0.85;;;28.10;99.90;;;;;;5038217;28;20043;-87
2023/07/18 10:31:39;;;;;;;4.22;1.45;;;28.00;99.90;;;;;;5041819;28;20049;-88
2023/07/18 10:34:14;;;;;;;2.03;1.08;;;27.40;99.90;;;;;;5041600;28;20037;-88
2023/07/18 10:36:53;;;;;;;3.22;1.10;;;27.30;99.90;;;;;;5031735;28;20034;-88
2023/07/18 10:39:19;;;;;;;3.28;1.27;;;27.30;99.90;;;;;;5031179;28;20044;-88
2023/07/18 10:41:45;;;;;;;2.92;1.30;;;27.60;99.90;;;;;;5033658;28;20478;-88
2023/07/18 10:44:13;;;;;;;2.33;1.17;;;27.70;99.90;;;;;;5031503;28;20032;-89
2023/07/18 10:46:40;;;;;;;3.25;1.15;;;27.50;99.90;;;;;;5039260;28;20043;-88
2023/07/18 10:49:07;;;;;;;2.55;1.20;;;27.30;99.90;;;;;;5041069;28;20371;-86
2023/07/18 10:51:34;;;;;;;2.33;1.20;;;26.70;99.90;;;;;;5040457;28;20052;-85
2023/07/18 10:54:01;;;;;;;3.90;1.38;;;26.30;99.90;;;;;;5038381;28;20471;-85
2023/07/18 10:56:27;;;;;;;2.72;1.00;;;26.50;99.90;;;;;;5037129;28;20041;-86
2023/07/18 10:58:57;;;;;;;1.63;0.90;;;27.00;99.90;;;;;;5026767;28;20038;-84
2023/07/18 11:01:25;;;;;;;2.38;1.20;;;27.20;99.90;;;;;;5034335;28;20475;-83
2023/07/18 11:03:51;;;;;;;3.42;1.15;;;27.30;99.90;;;;;;5035399;28;20374;-86
2023/07/18 11:06:18;;;;;;;4.43;1.38;;;27.00;99.90;;;;;;5046502;28;20025;-87
2023/07/18 11:08:45;;;;;;;1.85;0.90;;;26.80;99.90;;;;;;5053858;28;20037;-87
2023/07/18 11:11:11;;;;;;;3.25;0.82;;;27.00;99.90;;;;;;5047683;28;20386;-86
2023/07/18 11:13:39;;;;;;;2.33;0.90;;;27.00;99.90;;;;;;5039584;28;20042;-85
2023/07/18 11:16:06;;;;;;;3.15;1.20;;;26.70;99.90;;;;;;5047103;28;20048;-85
2023/07/18 11:18:35;;;;;;;3.55;1.33;;;26.70;99.90;;;;;;5052681;28;20038;-87
2023/07/18 11:21:06;;;;;;;5.55;1.40;;;26.70;99.90;;;;;;5038401;28;20037;-83
2023/07/18 11:23:34;;;;;;;3.72;1.45;;;26.70;99.90;;;;;;5037353;28;20398;-88
2023/07/18 11:26:12;;;;;;;4.47;1.13;;;26.70;99.90;;;;;;5033662;28;20037;-86
2023/07/18 11:28:40;;;;;;;2.03;0.80;;;27.10;99.90;;;;;;5033172;28;20045;-87
2023/07/18 11:31:27;;;;;;;4.72;0.93;;;27.50;99.90;;;;;;5037838;28;20041;-88
2023/07/18 11:33:58;;;;;;;2.58;1.20;;;27.70;99.90;;;;;;5037389;28;20402;-88
2023/07/18 11:36:29;;;;;;;4.00;1.67;;;27.60;99.90;;;;;;5035599;28;20040;-90
2023/07/18 11:38:58;;;;;;;9.80;1.52;;;27.40;99.90;;;;;;5041494;28;20396;-89
2023/07/18 11:41:34;;;;;;;1.60;1.10;;;27.40;99.90;;;;;;5033901;28;20482;-89
2023/07/18 11:44:05;;;;;;;3.63;1.15;;;27.80;99.90;;;;;;5036418;28;20355;-87
2023/07/18 11:46:36;;;;;;;3.55;1.30;;;28.10;99.90;;;;;;5035601;28;20491;-89
2023/07/18 11:49:03;;;;;;;3.65;1.13;;;27.90;99.90;;;;;;5034654;28;20530;-87
2023/07/18 11:51:32;;;;;;;2.63;0.98;;;27.50;99.90;;;;;;5040219;28;20037;-85
2023/07/18 11:54:00;;;;;;;4.07;1.23;;;27.50;99.90;;;;;;5035772;28;20029;-86
2023/07/18 11:56:26;;;;;;;3.25;1.17;;;27.70;99.90;;;;;;5022829;28;20036;-84
2023/07/18 11:58:52;;;;;;;2.88;1.00;;;27.30;99.90;;;;;;5040692;28;20033;-85
2023/07/18 12:01:19;;;;;;;3.92;1.65;;;27.10;99.90;;;;;;5036071;28;20037;-85
2023/07/18 12:03:45;;;;;;;4.45;1.75;;;27.40;99.90;;;;;;5031667;28;20041;-85
2023/07/18 12:06:11;;;;;;;4.18;1.10;;;27.80;99.90;;;;;;5034423;28;20132;-85
2023/07/18 12:08:37;;;;;;;4.13;1.27;;;28.20;99.90;;;;;;5036522;28;20036;-89
2023/07/18 12:11:04;;;;;;;3.67;1.27;;;28.30;99.90;;;;;;5050281;28;20037;-86
2023/07/18 12:13:31;;;;;;;2.90;1.45;;;28.30;99.90;;;;;;5036990;28;20366;-86
2023/07/18 12:16:00;;;;;;;1.98;0.93;;;28.10;99.90;;;;;;5032985;28;20049;-86
2023/07/18 12:18:26;;;;;;;4.55;1.55;;;27.70;99.90;;;;;;5049975;28;20041;-86
2023/07/18 12:20:53;;;;;;;4.35;1.45;;;27.50;99.90;;;;;;5037154;28;20037;-87
2023/07/18 12:23:19;;;;;;;3.55;1.00;;;27.40;99.90;;;;;;5035403;28;20041;-86
2023/07/18 12:25:45;;;;;;;6.18;1.45;;;27.50;99.90;;;;;;5035258;28;20033;-86
2023/07/18 12:28:11;;;;;;;2.05;1.13;;;27.70;99.90;;;;;;5036815;28;20484;-86
2023/07/18 12:30:37;;;;;;;2.17;1.08;;;27.90;99.90;;;;;;5034122;28;20045;-89
2023/07/18 12:33:04;;;;;;;2.40;0.82;;;28.20;99.90;;;;;;5035576;28;20451;-89
2023/07/18 12:35:30;;;;;;;4.70;1.52;;;28.30;99.90;;;;;;5033320;28;20036;-88
2023/07/18 12:37:56;;;;;;;3.03;1.05;;;28.40;99.90;;;;;;5033156;28;20049;-86
2023/07/18 12:40:23;;;;;;;2.60;1.30;;;28.30;99.90;;;;;;5040491;28;20048;-86
2023/07/18 12:42:49;;;;;;;2.90;1.10;;;28.20;99.90;;;;;;5044436;28;20038;-82
2023/07/18 12:45:16;;;;;;;4.13;1.52;;;28.20;99.90;;;;;;5039181;28;20045;-86
2023/07/18 12:47:43;;;;;;;4.18;1.20;;;28.10;99.90;;;;;;5037453;28;20374;-85
2023/07/18 12:50:10;;;;;;;4.75;1.50;;;28.10;99.90;;;;;;5039712;28;20410;-85
2023/07/18 12:52:38;;;;;;;3.78;1.73;;;28.10;99.90;;;;;;5040289;28;20040;-88